createdAt,value
2017-12-14T00:00:09.312Z,3.29
2017-12-14T00:01:24.245Z,3.33
2017-12-14T00:02:09.624Z,3.35
2017-12-14T00:03:09.604Z,3.32
2017-12-14T00:04:09.382Z,3.31
2017-12-14T00:05:09.624Z,3.32
2017-12-14T00:06:09.659Z,3.29
2017-12-14T00:07:09.647Z,3.26
2017-12-14T00:08:09.703Z,3.33
2017-12-14T00:09:09.718Z,3.29
2017-12-14T00:10:09.711Z,3.33
2017-12-14T00:11:09.728Z,3.36
2017-12-14T00:12:09.747Z,3.29
2017-12-14T00:13:09.753Z,3.35
2017-12-14T00:14:09.777Z,3.39
2017-12-14T00:15:09.781Z,3.35
2017-12-14T00:16:09.820Z,3.31
2017-12-14T00:17:09.566Z,3.35
2017-12-14T00:18:09.827Z,3.43
2017-12-14T00:19:09.835Z,3.36
2017-12-14T00:20:09.869Z,3.35
2017-12-14T00:21:09.873Z,3.45
2017-12-14T00:22:09.888Z,3.51
2017-12-14T00:23:09.907Z,3.48
2017-12-14T00:24:09.661Z,3.51
2017-12-14T00:25:09.933Z,3.52
2017-12-14T00:26:09.929Z,3.51
2017-12-14T00:27:09.960Z,3.47
2017-12-14T00:28:09.974Z,3.54
2017-12-14T00:29:09.986Z,3.5
2017-12-14T00:30:10.024Z,3.48
2017-12-14T00:31:10.003Z,3.52
2017-12-14T00:32:10.048Z,3.52
2017-12-14T00:34:24.742Z,3.58
2017-12-14T00:35:10.086Z,3.55
2017-12-14T00:36:10.073Z,3.58
2017-12-14T00:37:10.135Z,3.5
2017-12-14T00:38:10.109Z,3.61
2017-12-14T00:39:10.121Z,3.6
2017-12-14T00:41:10.134Z,3.57
2017-12-14T00:42:10.182Z,3.51
2017-12-14T00:43:10.227Z,3.6
2017-12-14T00:44:10.206Z,3.61
2017-12-14T00:45:10.240Z,3.62
2017-12-14T00:46:10.247Z,3.73
2017-12-14T00:47:10.228Z,3.69
2017-12-14T00:48:10.266Z,3.7
2017-12-14T00:49:24.934Z,3.76
2017-12-14T00:50:10.278Z,3.79
2017-12-14T00:51:10.342Z,3.75
2017-12-14T00:52:10.301Z,3.75
2017-12-14T00:53:10.321Z,3.78
2017-12-14T00:54:10.357Z,3.73
2017-12-14T00:55:10.351Z,3.83
2017-12-14T00:56:10.132Z,3.73
2017-12-14T00:57:25.068Z,3.72
2017-12-14T00:58:10.153Z,3.7
2017-12-14T00:59:10.431Z,3.76
2017-12-14T01:00:10.468Z,3.66
2017-12-14T01:01:10.476Z,3.75
2017-12-14T01:02:10.451Z,3.75
2017-12-14T01:03:10.486Z,3.79
2017-12-14T01:04:10.499Z,3.7
2017-12-14T01:05:25.181Z,3.84
2017-12-14T01:06:10.526Z,3.76
2017-12-14T01:07:10.537Z,3.79
2017-12-14T01:08:10.568Z,3.8
2017-12-14T01:09:10.593Z,3.8
2017-12-14T01:10:10.566Z,3.86
2017-12-14T01:11:10.327Z,3.83
2017-12-14T01:12:10.611Z,3.84
2017-12-14T01:13:10.648Z,3.86
2017-12-14T01:14:10.400Z,3.84
2017-12-14T01:15:10.721Z,3.86
2017-12-14T01:16:25.321Z,3.88
2017-12-14T01:17:10.696Z,3.88
2017-12-14T01:18:10.719Z,3.88
2017-12-14T01:20:10.745Z,3.86
2017-12-14T01:21:25.421Z,3.9
2017-12-14T01:23:10.505Z,3.86
2017-12-14T01:24:10.770Z,3.79
2017-12-14T01:25:10.807Z,3.86
2017-12-14T01:26:10.842Z,3.79
2017-12-14T01:27:10.825Z,3.84
2017-12-14T01:28:10.872Z,3.73
2017-12-14T01:29:10.860Z,3.88
2017-12-14T01:30:10.851Z,3.72
2017-12-14T01:31:10.880Z,3.8
2017-12-14T01:32:10.905Z,3.79
2017-12-14T01:33:25.598Z,3.78
2017-12-14T01:34:10.938Z,3.78
2017-12-14T01:35:10.927Z,3.83
2017-12-14T01:36:25.640Z,3.79
2017-12-14T01:37:10.955Z,3.79
2017-12-14T01:38:10.978Z,3.78
2017-12-14T01:39:11.025Z,3.78
2017-12-14T01:40:11.037Z,3.68
2017-12-14T01:41:11.048Z,3.57
2017-12-14T01:42:11.095Z,3.58
2017-12-14T01:43:11.065Z,3.58
2017-12-14T01:44:11.075Z,3.57
2017-12-14T01:45:11.096Z,3.61
2017-12-14T01:46:11.077Z,3.45
2017-12-14T01:47:11.110Z,3.4
2017-12-14T01:48:11.132Z,3.29
2017-12-14T01:49:10.913Z,3.18
2017-12-14T01:50:11.178Z,3.13
2017-12-14T01:51:10.916Z,3.18
2017-12-14T01:52:10.936Z,3.05
2017-12-14T01:53:11.211Z,2.99
2017-12-14T01:55:11.241Z,2.89
2017-12-14T01:56:11.272Z,2.95
2017-12-14T01:57:11.271Z,2.79
2017-12-14T01:58:11.373Z,2.75
2017-12-14T01:59:11.296Z,2.78
2017-12-14T02:00:11.306Z,2.78
2017-12-14T02:01:11.311Z,2.82
2017-12-14T02:02:11.342Z,2.85
2017-12-14T02:03:11.365Z,2.85
2017-12-14T02:04:11.127Z,2.78
2017-12-14T02:05:11.391Z,2.81
2017-12-14T02:06:11.413Z,2.85
2017-12-14T02:07:11.393Z,2.85
2017-12-14T02:08:26.077Z,2.78
2017-12-14T02:09:11.166Z,2.84
2017-12-14T02:10:11.438Z,2.79
2017-12-14T02:11:11.209Z,2.61
2017-12-14T02:12:11.234Z,2.71
2017-12-14T02:13:11.247Z,2.72
2017-12-14T02:14:11.519Z,2.57
2017-12-14T02:15:11.539Z,2.75
2017-12-14T02:16:11.547Z,2.57
2017-12-14T02:17:11.551Z,2.61
2017-12-14T02:18:11.563Z,2.57
2017-12-14T02:19:11.602Z,2.64
2017-12-14T02:20:11.580Z,2.59
2017-12-14T02:21:11.620Z,2.56
2017-12-14T02:23:11.617Z,2.75
2017-12-14T02:26:11.691Z,2.66
2017-12-14T02:27:11.685Z,2.6
2017-12-14T02:28:11.460Z,2.59
2017-12-14T02:29:11.711Z,2.71
2017-12-14T02:30:26.383Z,2.6
2017-12-14T02:31:11.763Z,2.6
2017-12-14T02:32:11.491Z,2.67
2017-12-14T02:33:11.531Z,2.63
2017-12-14T02:34:11.806Z,2.69
2017-12-14T02:35:11.788Z,2.75
2017-12-14T02:36:11.807Z,2.66
2017-12-14T02:37:26.239Z,2.75
2017-12-14T02:38:11.848Z,2.79
2017-12-14T02:39:11.610Z,2.82
2017-12-14T02:40:26.518Z,2.75
2017-12-14T02:41:11.894Z,2.79
2017-12-14T02:42:11.876Z,2.81
2017-12-14T02:43:11.919Z,2.89
2017-12-14T02:44:11.678Z,2.82
2017-12-14T02:45:11.941Z,2.82
2017-12-14T02:46:12.042Z,2.85
2017-12-14T02:47:11.960Z,2.84
2017-12-14T02:48:11.737Z,2.85
2017-12-14T02:49:12.008Z,2.82
2017-12-14T02:50:11.994Z,2.87
2017-12-14T02:51:12.039Z,2.93
2017-12-14T02:52:12.045Z,2.9
2017-12-14T02:53:12.053Z,2.96
2017-12-14T02:54:12.083Z,2.95
2017-12-14T02:55:12.087Z,3.03
2017-12-14T02:57:12.114Z,3.06
2017-12-14T02:58:12.115Z,3.03
2017-12-14T02:59:26.812Z,3.05
2017-12-14T03:00:11.909Z,3.06
2017-12-14T03:01:12.166Z,3.03
2017-12-14T03:02:12.198Z,3.06
2017-12-14T03:03:12.192Z,3.06
2017-12-14T03:04:26.879Z,3.08
2017-12-14T03:05:12.191Z,3.02
2017-12-14T03:06:12.250Z,3.14
2017-12-14T03:07:11.997Z,3.1
2017-12-14T03:09:11.996Z,3.13
2017-12-14T03:10:12.024Z,3.24
2017-12-14T03:11:26.964Z,3.13
2017-12-14T03:12:12.303Z,3.21
2017-12-14T03:15:12.354Z,3.17
2017-12-14T03:16:12.104Z,3.26
2017-12-14T03:17:12.375Z,3.24
2017-12-14T03:18:12.426Z,3.32
2017-12-14T03:19:12.394Z,3.31
2017-12-14T03:20:12.448Z,3.4
2017-12-14T03:21:12.446Z,3.33
2017-12-14T03:23:12.448Z,3.42
2017-12-14T03:24:12.474Z,3.42
2017-12-14T03:25:12.507Z,3.62
2017-12-14T03:27:12.260Z,3.68
2017-12-14T03:28:12.540Z,3.62
2017-12-14T03:29:12.523Z,3.58
2017-12-14T03:30:12.597Z,3.72
2017-12-14T03:31:12.578Z,3.72
2017-12-14T03:32:12.610Z,3.83
2017-12-14T03:33:12.610Z,3.69
2017-12-14T03:34:12.610Z,3.84
2017-12-14T03:35:12.644Z,3.88
2017-12-14T03:36:12.401Z,3.79
2017-12-14T03:37:12.668Z,3.9
2017-12-14T03:38:12.692Z,3.94
2017-12-14T03:39:12.697Z,3.93
2017-12-14T03:40:12.715Z,3.88
2017-12-14T03:41:12.723Z,3.88
2017-12-14T03:42:12.766Z,4.02
2017-12-14T03:43:27.439Z,4.16
2017-12-14T03:44:12.528Z,4.2
2017-12-14T03:45:12.781Z,4.18
2017-12-14T03:47:12.823Z,4.2
2017-12-14T03:48:12.819Z,4.36
2017-12-14T03:49:12.864Z,4.42
2017-12-14T03:50:12.837Z,4.34
2017-12-14T03:51:12.866Z,4.3
2017-12-14T03:52:12.875Z,4.48
2017-12-14T03:53:12.895Z,4.34
2017-12-14T03:54:12.911Z,4.47
2017-12-14T03:55:12.924Z,4.44
2017-12-14T03:56:12.967Z,4.52
2017-12-14T03:57:12.955Z,4.48
2017-12-14T03:58:12.968Z,4.52
2017-12-14T03:59:27.648Z,4.47
2017-12-14T04:01:13.030Z,4.66
2017-12-14T04:02:13.035Z,4.66
2017-12-14T04:03:13.060Z,4.7
2017-12-14T04:04:13.034Z,4.67
2017-12-14T04:05:13.052Z,4.63
2017-12-14T04:06:13.079Z,4.72
2017-12-14T04:07:13.104Z,4.72
2017-12-14T04:08:13.094Z,4.69
2017-12-14T04:09:13.233Z,4.86
2017-12-14T04:10:13.166Z,4.77
2017-12-14T04:11:13.169Z,4.75
2017-12-14T04:12:12.912Z,4.89
2017-12-14T04:13:13.211Z,4.84
2017-12-14T04:14:13.228Z,4.84
2017-12-14T04:16:13.249Z,4.99
2017-12-14T04:17:13.253Z,4.88
2017-12-14T04:18:13.011Z,4.91
2017-12-14T04:19:13.294Z,4.88
2017-12-14T04:20:13.299Z,4.91
2017-12-14T04:21:13.304Z,4.97
2017-12-14T04:22:13.344Z,5.04
2017-12-14T04:23:13.340Z,5
2017-12-14T04:24:13.352Z,5.06
2017-12-14T04:25:13.363Z,5.15
2017-12-14T04:26:13.382Z,5.15
2017-12-14T04:27:13.416Z,5.22
2017-12-14T04:28:13.394Z,5.24
2017-12-14T04:29:13.436Z,5.13
2017-12-14T04:30:13.452Z,5.15
2017-12-14T04:31:28.151Z,5.06
2017-12-14T04:32:13.494Z,5.06
2017-12-14T04:33:13.488Z,5.07
2017-12-14T04:34:13.529Z,4.86
2017-12-14T04:35:13.496Z,4.91
2017-12-14T04:36:13.544Z,4.92
2017-12-14T04:37:13.533Z,4.88
2017-12-14T04:38:13.563Z,4.89
2017-12-14T04:39:13.595Z,4.84
2017-12-14T04:40:13.585Z,4.97
2017-12-14T04:41:13.638Z,5.02
2017-12-14T04:42:13.627Z,5.03
2017-12-14T04:43:13.655Z,5.12
2017-12-14T04:44:13.685Z,5.1
2017-12-14T04:45:13.700Z,5.13
2017-12-14T04:46:28.098Z,5.12
2017-12-14T04:47:13.778Z,5.17
2017-12-14T04:49:13.737Z,5.1
2017-12-14T04:50:13.764Z,5.1
2017-12-14T04:51:13.739Z,5.07
2017-12-14T04:52:13.778Z,5.02
2017-12-14T04:53:28.198Z,5.06
2017-12-14T04:54:13.791Z,5.13
2017-12-14T04:55:13.558Z,5.1
2017-12-14T04:56:13.816Z,5.15
2017-12-14T04:57:13.589Z,5.15
2017-12-14T04:58:13.890Z,5.22
2017-12-14T04:59:13.887Z,5.17
2017-12-14T05:00:28.578Z,5.13
2017-12-14T05:01:13.883Z,5.13
2017-12-14T05:02:28.612Z,5.15
2017-12-14T05:04:13.954Z,5.3
2017-12-14T05:05:28.646Z,5.25
2017-12-14T05:06:13.740Z,5.27
2017-12-14T05:07:14.004Z,5.33
2017-12-14T05:08:13.747Z,5.22
2017-12-14T05:09:28.710Z,5.27
2017-12-14T05:10:14.031Z,5.3
2017-12-14T05:11:14.048Z,5.31
2017-12-14T05:13:14.107Z,5.25
2017-12-14T05:14:14.110Z,5.35
2017-12-14T05:15:14.102Z,5.3
2017-12-14T05:16:13.900Z,5.28
2017-12-14T05:17:14.154Z,5.28
2017-12-14T05:18:28.832Z,5.33
2017-12-14T05:19:13.921Z,5.38
2017-12-14T05:20:14.208Z,5.33
2017-12-14T05:21:13.956Z,5.31
2017-12-14T05:22:14.230Z,5.36
2017-12-14T05:23:14.258Z,5.27
2017-12-14T05:24:28.672Z,5.36
2017-12-14T05:25:14.279Z,5.4
2017-12-14T05:26:14.268Z,5.28
2017-12-14T05:27:14.034Z,5.35
2017-12-14T05:28:28.986Z,5.3
2017-12-14T05:29:14.319Z,5.33
2017-12-14T05:30:14.333Z,5.3
2017-12-14T05:31:14.361Z,5.28
2017-12-14T05:33:14.416Z,5.35
2017-12-14T05:34:29.103Z,5.35
2017-12-14T05:35:14.421Z,5.27
2017-12-14T05:36:14.468Z,5.35
2017-12-14T05:37:14.437Z,5.38
2017-12-14T05:38:14.496Z,5.3
2017-12-14T05:39:14.492Z,5.25
2017-12-14T05:40:14.484Z,5.45
2017-12-14T05:41:14.522Z,5.4
2017-12-14T05:42:14.566Z,5.42
2017-12-14T05:43:29.206Z,5.43
2017-12-14T05:44:14.323Z,5.35
2017-12-14T05:45:14.610Z,5.43
2017-12-14T05:47:14.596Z,5.43
2017-12-14T05:48:14.626Z,5.39
2017-12-14T05:49:14.667Z,5.43
2017-12-14T05:50:29.321Z,5.38
2017-12-14T05:51:14.703Z,5.4
2017-12-14T05:52:14.692Z,5.38
2017-12-14T05:53:14.715Z,5.39
2017-12-14T05:54:14.734Z,5.4
2017-12-14T05:55:14.758Z,5.38
2017-12-14T05:56:14.516Z,5.35
2017-12-14T05:57:14.750Z,5.39
2017-12-14T05:58:14.786Z,5.39
2017-12-14T05:59:14.823Z,5.33
2017-12-14T06:00:14.814Z,5.3
2017-12-14T06:01:14.833Z,5.35
2017-12-14T06:03:14.862Z,5.36
2017-12-14T06:04:29.536Z,5.38
2017-12-14T06:05:14.898Z,5.31
2017-12-14T06:06:29.581Z,5.39
2017-12-14T06:07:14.665Z,5.36
2017-12-14T06:08:14.423Z,5.45
2017-12-14T06:09:29.637Z,5.38
2017-12-14T06:10:14.730Z,5.35
2017-12-14T06:11:15.004Z,5.36
2017-12-14T06:12:29.678Z,5.3
2017-12-14T06:13:14.993Z,5.27
2017-12-14T06:14:15.022Z,5.27
2017-12-14T06:15:14.800Z,5.27
2017-12-14T06:16:15.050Z,5.15
2017-12-14T06:17:15.063Z,5.25
2017-12-14T06:18:15.112Z,5.13
2017-12-14T06:19:15.109Z,5.27
2017-12-14T06:21:29.566Z,5.28
2017-12-14T06:23:15.170Z,5.13
2017-12-14T06:24:15.188Z,5.1
2017-12-14T06:25:15.210Z,5.03
2017-12-14T06:26:15.212Z,5.1
2017-12-14T06:27:15.243Z,5.1
2017-12-14T06:28:15.282Z,5.03
2017-12-14T06:29:29.940Z,5.06
2017-12-14T06:30:15.283Z,5.07
2017-12-14T06:31:15.046Z,5.02
2017-12-14T06:32:15.297Z,4.99
2017-12-14T06:34:15.085Z,5.06
2017-12-14T06:35:15.373Z,4.92
2017-12-14T06:36:15.359Z,4.97
2017-12-14T06:38:15.137Z,4.91
2017-12-14T06:39:15.446Z,5
2017-12-14T06:41:15.457Z,4.89
2017-12-14T06:42:30.136Z,4.84
2017-12-14T06:43:15.316Z,4.85
2017-12-14T06:44:15.482Z,4.85
2017-12-14T06:45:15.244Z,4.84
2017-12-14T06:46:30.208Z,4.88
2017-12-14T06:47:15.521Z,4.89
2017-12-14T06:48:15.584Z,4.84
2017-12-14T06:49:15.633Z,4.77
2017-12-14T06:50:15.344Z,4.8
2017-12-14T06:51:15.611Z,4.7
2017-12-14T06:52:15.363Z,4.85
2017-12-14T06:53:30.310Z,4.8
2017-12-14T06:54:15.659Z,4.73
2017-12-14T06:55:15.417Z,4.8
2017-12-14T06:56:15.435Z,4.8
2017-12-14T06:57:15.703Z,4.72
2017-12-14T06:58:15.454Z,4.69
2017-12-14T06:59:30.392Z,4.69
2017-12-14T07:00:15.770Z,4.67
2017-12-14T07:01:15.246Z,4.62
2017-12-14T07:02:15.513Z,4.66
2017-12-14T07:03:15.791Z,4.7
2017-12-14T07:04:15.831Z,4.77
2017-12-14T07:05:15.573Z,4.73
2017-12-14T07:08:15.886Z,4.66
2017-12-14T07:09:30.545Z,4.65
2017-12-14T07:10:15.875Z,4.66
2017-12-14T07:11:15.927Z,4.52
2017-12-14T07:12:15.940Z,4.52
2017-12-14T07:13:15.936Z,4.51
2017-12-14T07:14:15.984Z,4.59
2017-12-14T07:15:15.985Z,4.42
2017-12-14T07:16:15.469Z,4.52
2017-12-14T07:17:16.015Z,4.65
2017-12-14T07:19:16.012Z,4.65
2017-12-14T07:20:15.786Z,4.67
2017-12-14T07:21:16.047Z,4.7
2017-12-14T07:22:15.843Z,4.69
2017-12-14T07:23:30.783Z,4.62
2017-12-14T07:24:16.108Z,4.58
2017-12-14T07:25:30.780Z,4.65
2017-12-14T07:27:15.891Z,4.63
2017-12-14T07:28:15.918Z,4.63
2017-12-14T07:29:16.205Z,4.6
2017-12-14T07:30:16.202Z,4.69
2017-12-14T07:31:15.976Z,4.7
2017-12-14T07:32:16.242Z,4.77
2017-12-14T07:33:16.240Z,4.7
2017-12-14T07:34:16.023Z,4.65
2017-12-14T07:35:16.329Z,4.82
2017-12-14T07:36:16.045Z,4.63
2017-12-14T07:37:16.282Z,4.73
2017-12-14T07:38:16.333Z,4.67
2017-12-14T07:40:16.100Z,4.67
2017-12-14T07:41:31.031Z,4.72
2017-12-14T07:42:16.127Z,4.65
2017-12-14T07:44:16.421Z,4.69
2017-12-14T07:45:16.441Z,4.69
2017-12-14T07:46:16.171Z,4.72
2017-12-14T07:47:16.211Z,4.65
2017-12-14T07:48:16.484Z,4.77
2017-12-14T07:49:16.230Z,4.67
2017-12-14T07:50:16.516Z,4.72
2017-12-14T07:51:16.540Z,4.73
2017-12-14T07:52:16.322Z,4.72
2017-12-14T07:53:16.552Z,4.72
2017-12-14T07:54:16.581Z,4.69
2017-12-14T07:55:16.613Z,4.8
2017-12-14T07:56:31.284Z,4.66
2017-12-14T07:57:16.601Z,4.77
2017-12-14T07:58:16.633Z,4.77
2017-12-14T07:59:16.675Z,4.69
2017-12-14T08:00:16.668Z,4.67
2017-12-14T08:01:16.704Z,4.78
2017-12-14T08:02:16.175Z,4.67
2017-12-14T08:03:16.695Z,4.77
2017-12-14T08:04:16.748Z,4.67
2017-12-14T08:05:16.724Z,4.69
2017-12-14T08:06:16.783Z,4.67
2017-12-14T08:07:16.781Z,4.66
2017-12-14T08:08:16.814Z,4.72
2017-12-14T08:09:16.782Z,4.66
2017-12-14T08:10:16.807Z,4.67
2017-12-14T08:11:16.834Z,4.75
2017-12-14T08:13:16.882Z,4.73
2017-12-14T08:14:16.883Z,4.72
2017-12-14T08:15:16.921Z,4.65
2017-12-14T08:16:16.914Z,4.7
2017-12-14T08:17:16.925Z,4.7
2017-12-14T08:18:16.967Z,4.75
2017-12-14T08:19:16.959Z,4.88
2017-12-14T08:20:16.990Z,4.84
2017-12-14T08:21:16.976Z,4.75
2017-12-14T08:22:17.028Z,4.75
2017-12-14T08:23:17.032Z,4.7
2017-12-14T08:24:31.711Z,4.82
2017-12-14T08:25:17.074Z,4.85
2017-12-14T08:26:16.547Z,4.77
2017-12-14T08:27:17.190Z,4.73
2017-12-14T08:28:31.782Z,4.75
2017-12-14T08:30:17.136Z,4.73
2017-12-14T08:31:16.895Z,4.77
2017-12-14T08:32:17.171Z,4.75
2017-12-14T08:33:17.165Z,4.8
2017-12-14T08:34:31.617Z,4.8
2017-12-14T08:35:17.197Z,4.7
2017-12-14T08:36:17.210Z,4.7
2017-12-14T08:37:17.262Z,4.88
2017-12-14T08:39:17.251Z,4.99
2017-12-14T08:40:17.277Z,4.96
2017-12-14T08:41:17.410Z,4.97
2017-12-14T08:42:17.342Z,4.97
2017-12-14T08:43:17.340Z,4.92
2017-12-14T08:44:32.005Z,4.99
2017-12-14T08:45:17.367Z,4.97
2017-12-14T08:46:17.138Z,5.04
2017-12-14T08:47:17.381Z,5
2017-12-14T08:48:17.428Z,4.88
2017-12-14T08:49:17.432Z,4.89
2017-12-14T08:50:17.466Z,4.84
2017-12-14T08:51:17.433Z,4.88
2017-12-14T08:52:17.484Z,4.94
2017-12-14T08:53:16.991Z,4.96
2017-12-14T08:54:17.528Z,4.97
2017-12-14T08:55:17.251Z,5.02
2017-12-14T08:56:17.299Z,5.06
2017-12-14T08:57:17.047Z,5.02
2017-12-14T08:58:17.328Z,4.96
2017-12-14T08:59:17.326Z,4.86
2017-12-14T09:00:32.275Z,4.85
2017-12-14T09:01:17.623Z,4.88
2017-12-14T09:02:32.309Z,4.91
2017-12-14T09:03:17.652Z,5
2017-12-14T09:04:17.665Z,5.09
2017-12-14T09:05:32.345Z,5.04
2017-12-14T09:06:17.681Z,4.96
2017-12-14T09:08:18.037Z,5.04
2017-12-14T09:09:17.721Z,5.07
2017-12-14T09:10:17.762Z,4.92
2017-12-14T09:11:17.775Z,4.99
2017-12-14T09:12:17.788Z,5.07
2017-12-14T09:13:17.842Z,4.94
2017-12-14T09:14:17.802Z,4.92
2017-12-14T09:15:17.816Z,4.96
2017-12-14T09:16:32.508Z,4.96
2017-12-14T09:17:17.854Z,5.06
2017-12-14T09:18:32.573Z,4.97
2017-12-14T09:19:17.892Z,4.96
2017-12-14T09:20:17.945Z,5.04
2017-12-14T09:21:17.702Z,5.07
2017-12-14T09:22:32.622Z,5
2017-12-14T09:23:17.715Z,5.07
2017-12-14T09:24:17.979Z,4.94
2017-12-14T09:25:17.989Z,4.96
2017-12-14T09:26:17.766Z,5.1
2017-12-14T09:27:18.035Z,5.1
2017-12-14T09:28:17.778Z,5.15
2017-12-14T09:29:18.096Z,5.13
2017-12-14T09:30:18.076Z,5.12
2017-12-14T09:31:32.776Z,5.2
2017-12-14T09:32:18.127Z,5.2
2017-12-14T09:33:18.124Z,5.18
2017-12-14T09:34:18.165Z,5.22
2017-12-14T09:35:18.139Z,5.28
2017-12-14T09:36:18.191Z,5.27
2017-12-14T09:37:18.207Z,5.3
2017-12-14T09:38:18.197Z,5.24
2017-12-14T09:39:18.228Z,5.27
2017-12-14T09:40:18.242Z,5.33
2017-12-14T09:41:18.268Z,5.33
2017-12-14T09:42:18.252Z,5.27
2017-12-14T09:43:18.285Z,5.35
2017-12-14T09:44:18.309Z,5.35
2017-12-14T09:45:18.338Z,5.36
2017-12-14T09:46:18.362Z,5.33
2017-12-14T09:47:18.321Z,5.36
2017-12-14T09:48:17.855Z,5.3
2017-12-14T09:49:18.410Z,5.4
2017-12-14T09:50:18.391Z,5.36
2017-12-14T09:51:18.422Z,5.35
2017-12-14T09:54:18.476Z,5.36
2017-12-14T09:55:18.472Z,5.4
2017-12-14T09:56:18.232Z,5.4
2017-12-14T09:57:18.489Z,5.45
2017-12-14T09:58:18.522Z,5.43
2017-12-14T09:59:18.296Z,5.45
2017-12-14T10:00:18.561Z,5.42
2017-12-14T10:01:18.594Z,5.48
2017-12-14T10:02:18.587Z,5.4
2017-12-14T10:03:33.258Z,5.51
2017-12-14T10:04:18.635Z,5.48
2017-12-14T10:05:18.400Z,5.43
2017-12-14T10:06:33.325Z,5.56
2017-12-14T10:07:18.413Z,5.51
2017-12-14T10:08:18.656Z,5.49
2017-12-14T10:09:18.702Z,5.53
2017-12-14T10:10:18.741Z,5.54
2017-12-14T10:11:18.726Z,5.63
2017-12-14T10:12:18.730Z,5.65
2017-12-14T10:13:18.763Z,5.65
2017-12-14T10:14:18.804Z,5.61
2017-12-14T10:15:18.523Z,5.72
2017-12-14T10:16:18.806Z,5.79
2017-12-14T10:17:18.860Z,5.78
2017-12-14T10:19:33.533Z,5.82
2017-12-14T10:20:18.631Z,5.83
2017-12-14T10:21:18.871Z,5.93
2017-12-14T10:22:18.925Z,5.85
2017-12-14T10:23:19.027Z,5.89
2017-12-14T10:24:18.674Z,5.94
2017-12-14T10:25:33.635Z,5.9
2017-12-14T10:26:18.955Z,5.96
2017-12-14T10:27:19.010Z,5.97
2017-12-14T10:28:18.987Z,6.03
2017-12-14T10:29:19.042Z,6.06
2017-12-14T10:30:18.785Z,6.03
2017-12-14T10:32:19.076Z,5.99
2017-12-14T10:33:19.068Z,6.01
2017-12-14T10:34:19.107Z,6.04
2017-12-14T10:35:33.783Z,5.99
2017-12-14T10:36:19.123Z,6.06
2017-12-14T10:38:19.169Z,6.03
2017-12-14T10:39:19.209Z,6.12
2017-12-14T10:40:19.224Z,6
2017-12-14T10:42:19.256Z,6.04
2017-12-14T10:43:33.907Z,6.09
2017-12-14T10:44:19.267Z,6.09
2017-12-14T10:45:33.947Z,6.12
2017-12-14T10:46:19.305Z,6.11
2017-12-14T10:47:19.341Z,6.04
2017-12-14T10:48:19.336Z,6.11
2017-12-14T10:49:19.352Z,6.09
2017-12-14T10:50:19.395Z,6.12
2017-12-14T10:51:34.056Z,6.03
2017-12-14T10:52:34.118Z,6.11
2017-12-14T10:53:19.420Z,6
2017-12-14T10:54:19.438Z,6.12
2017-12-14T10:55:19.456Z,6.06
2017-12-14T10:56:19.222Z,6.11
2017-12-14T10:57:19.519Z,6.04
2017-12-14T10:58:19.513Z,6.03
2017-12-14T10:59:19.513Z,5.99
2017-12-14T11:00:34.214Z,6.08
2017-12-14T11:01:19.543Z,6.03
2017-12-14T11:03:19.338Z,6.11
2017-12-14T11:04:19.606Z,5.97
2017-12-14T11:05:19.372Z,6.11
2017-12-14T11:06:34.311Z,6.03
2017-12-14T11:07:19.632Z,6.04
2017-12-14T11:08:19.635Z,6.09
2017-12-14T11:09:19.692Z,6.15
2017-12-14T11:10:19.670Z,6.19
2017-12-14T11:11:19.731Z,6.15
2017-12-14T11:12:19.714Z,6.28
2017-12-14T11:13:19.778Z,6.31
2017-12-14T11:14:19.779Z,6.36
2017-12-14T11:15:19.510Z,6.43
2017-12-14T11:16:19.793Z,6.34
2017-12-14T11:17:19.811Z,6.34
2017-12-14T11:18:19.847Z,6.46
2017-12-14T11:19:19.608Z,6.37
2017-12-14T11:20:19.865Z,6.43
2017-12-14T11:21:19.886Z,6.54
2017-12-14T11:22:19.894Z,6.38
2017-12-14T11:23:19.404Z,6.4
2017-12-14T11:24:19.671Z,6.38
2017-12-14T11:25:19.951Z,6.36
2017-12-14T11:26:19.980Z,6.38
2017-12-14T11:27:19.962Z,6.37
2017-12-14T11:28:19.974Z,6.48
2017-12-14T11:29:20.024Z,6.37
2017-12-14T11:30:20.028Z,6.31
2017-12-14T11:31:20.070Z,6.31
2017-12-14T11:32:19.802Z,6.3
2017-12-14T11:33:20.097Z,6.18
2017-12-14T11:34:20.091Z,6.19
2017-12-14T11:35:20.112Z,6.17
2017-12-14T11:37:20.143Z,6.22
2017-12-14T11:38:34.812Z,6.22
2017-12-14T11:39:20.152Z,6.3
2017-12-14T11:40:20.339Z,6.28
2017-12-14T11:42:20.244Z,6.25
2017-12-14T11:43:20.227Z,6.3
2017-12-14T11:44:20.352Z,6.28
2017-12-14T11:45:20.267Z,6.3
2017-12-14T11:47:20.314Z,6.21
2017-12-14T11:48:20.089Z,6.19
2017-12-14T11:49:20.339Z,6.27
2017-12-14T11:50:20.375Z,6.21
2017-12-14T11:54:35.081Z,6.31
2017-12-14T11:55:20.449Z,6.21
2017-12-14T11:56:35.136Z,6.27
2017-12-14T11:58:20.258Z,6.28
2017-12-14T11:59:20.265Z,6.19
2017-12-14T12:01:20.593Z,6.17
2017-12-14T12:02:20.576Z,6.18
2017-12-14T12:03:20.551Z,6.21
2017-12-14T12:04:20.590Z,6.17
2017-12-14T12:05:20.588Z,6.12
2017-12-14T12:06:20.596Z,6.08
2017-12-14T12:07:20.628Z,6.06
2017-12-14T12:08:20.635Z,6.11
2017-12-14T12:09:20.438Z,6.12
2017-12-14T12:10:35.368Z,6.11
2017-12-14T12:12:20.454Z,6.06
2017-12-14T12:13:20.746Z,6.12
2017-12-14T12:14:20.770Z,6.06
2017-12-14T12:15:20.822Z,6.12
2017-12-14T12:16:20.843Z,6.14
2017-12-14T12:17:20.816Z,6.12
2017-12-14T12:18:35.238Z,6.18
2017-12-14T12:20:20.863Z,6.19
2017-12-14T12:21:20.615Z,6.17
2017-12-14T12:22:20.860Z,6.25
2017-12-14T12:23:20.912Z,6.3
2017-12-14T12:24:20.919Z,6.25
2017-12-14T12:26:35.610Z,6.28
2017-12-14T12:27:35.641Z,6.43
2017-12-14T12:28:20.984Z,6.36
2017-12-14T12:29:20.993Z,6.33
2017-12-14T12:30:21.012Z,6.48
2017-12-14T12:31:21.055Z,6.34
2017-12-14T12:32:21.041Z,6.38
2017-12-14T12:33:21.063Z,6.33
2017-12-14T12:34:21.094Z,6.34
2017-12-14T12:35:21.145Z,6.14
2017-12-14T12:36:35.799Z,6.18
2017-12-14T12:37:21.168Z,6.15
2017-12-14T12:38:21.155Z,6.17
2017-12-14T12:39:21.172Z,6.21
2017-12-14T12:42:20.962Z,6.08
2017-12-14T12:43:21.214Z,6.12
2017-12-14T12:44:21.259Z,6.06
2017-12-14T12:45:21.277Z,5.94
2017-12-14T12:46:21.295Z,5.99
2017-12-14T12:47:21.331Z,5.96
2017-12-14T12:48:21.313Z,5.94
2017-12-14T12:49:21.355Z,5.85
2017-12-14T12:50:21.380Z,5.83
2017-12-14T12:51:21.371Z,5.79
2017-12-14T12:52:21.386Z,5.76
2017-12-14T12:53:21.405Z,5.68
2017-12-14T12:54:21.414Z,5.65
2017-12-14T12:55:21.460Z,5.65
2017-12-14T12:56:21.446Z,5.76
2017-12-14T12:57:21.492Z,5.64
2017-12-14T12:58:21.236Z,5.72
2017-12-14T12:59:21.499Z,5.68
2017-12-14T13:00:36.202Z,5.85
2017-12-14T13:02:21.565Z,5.76
2017-12-14T13:03:21.570Z,5.72
2017-12-14T13:04:21.325Z,5.83
2017-12-14T13:05:21.579Z,5.65
2017-12-14T13:06:36.268Z,5.64
2017-12-14T13:08:21.387Z,5.76
2017-12-14T13:09:21.696Z,5.71
2017-12-14T13:10:21.682Z,5.68
2017-12-14T13:11:21.714Z,5.74
2017-12-14T13:12:21.718Z,5.75
2017-12-14T13:13:36.409Z,5.71
2017-12-14T13:14:21.477Z,5.81
2017-12-14T13:15:21.500Z,5.67
2017-12-14T13:16:21.775Z,5.74
2017-12-14T13:17:21.776Z,5.89
2017-12-14T13:18:21.827Z,5.76
2017-12-14T13:19:21.831Z,5.68
2017-12-14T13:20:21.841Z,5.57
2017-12-14T13:21:21.952Z,5.61
2017-12-14T13:22:21.891Z,5.6
2017-12-14T13:23:21.877Z,5.56
2017-12-14T13:24:21.889Z,5.6
2017-12-14T13:25:21.919Z,5.57
2017-12-14T13:26:21.687Z,5.64
2017-12-14T13:27:21.940Z,5.56
2017-12-14T13:29:36.659Z,5.61
2017-12-14T13:30:21.993Z,5.64
2017-12-14T13:31:22.050Z,5.57
2017-12-14T13:32:22.031Z,5.56
2017-12-14T13:33:22.068Z,5.48
2017-12-14T13:34:22.143Z,5.54
2017-12-14T13:35:22.059Z,5.51
2017-12-14T13:36:22.098Z,5.56
2017-12-14T13:37:22.121Z,5.53
2017-12-14T13:38:22.108Z,5.51
2017-12-14T13:39:22.133Z,5.61
2017-12-14T13:40:22.162Z,5.63
2017-12-14T13:41:22.174Z,5.65
2017-12-14T13:42:22.196Z,5.61
2017-12-14T13:43:22.215Z,5.65
2017-12-14T13:44:22.219Z,5.63
2017-12-14T13:45:36.918Z,5.49
2017-12-14T13:46:22.278Z,5.58
2017-12-14T13:47:22.364Z,5.51
2017-12-14T13:48:22.285Z,5.58
2017-12-14T13:49:22.311Z,5.61
2017-12-14T13:50:22.319Z,5.48
2017-12-14T13:51:22.334Z,5.54
2017-12-14T13:52:22.367Z,5.51
2017-12-14T13:53:22.347Z,5.49
2017-12-14T13:54:22.367Z,5.46
2017-12-14T13:55:37.118Z,5.49
2017-12-14T13:56:22.434Z,5.56
2017-12-14T13:57:22.160Z,5.65
2017-12-14T13:58:22.468Z,5.57
2017-12-14T13:59:22.195Z,5.64
2017-12-14T14:00:22.218Z,5.54
2017-12-14T14:01:37.152Z,5.56
2017-12-14T14:02:22.531Z,5.46
2017-12-14T14:03:22.262Z,5.49
2017-12-14T14:04:22.547Z,5.58
2017-12-14T14:05:22.572Z,5.46
2017-12-14T14:06:22.609Z,5.48
2017-12-14T14:07:22.598Z,5.38
2017-12-14T14:08:37.291Z,5.36
2017-12-14T14:09:22.378Z,5.24
2017-12-14T14:10:22.653Z,5.3
2017-12-14T14:11:22.671Z,5.27
2017-12-14T14:12:37.324Z,5.24
2017-12-14T14:13:22.684Z,5.2
2017-12-14T14:14:22.462Z,5.17
2017-12-14T14:15:22.727Z,5.1
2017-12-14T14:16:37.440Z,5.03
2017-12-14T14:17:22.751Z,5.02
2017-12-14T14:18:22.784Z,5.03
2017-12-14T14:19:22.800Z,5.09
2017-12-14T14:20:22.536Z,5.18
2017-12-14T14:21:22.846Z,5.2
2017-12-14T14:22:22.893Z,5.28